createdAt,value
2019-02-12T00:00:27.279Z,16.32
2019-02-12T00:02:56.694Z,13.55
2019-02-12T00:05:25.751Z,14.58
2019-02-12T00:07:54.823Z,14.80
2019-02-12T00:10:23.976Z,17.32
2019-02-12T00:12:53.033Z,13.60
2019-02-12T00:15:22.101Z,14.00
2019-02-12T00:17:51.580Z,19.23
2019-02-12T00:20:20.646Z,15.75
2019-02-12T00:22:49.711Z,14.60
2019-02-12T00:25:18.821Z,13.62
2019-02-12T00:27:48.162Z,22.80
2019-02-12T00:30:17.246Z,13.93
2019-02-12T00:32:46.345Z,20.25
2019-02-12T00:35:15.409Z,16.48
2019-02-12T00:37:44.466Z,13.95
2019-02-12T00:40:13.841Z,13.83
2019-02-12T00:42:43.240Z,14.55
2019-02-12T00:45:12.302Z,17.27
2019-02-12T00:47:42.225Z,18.40
2019-02-12T00:50:12.167Z,16.67
2019-02-12T00:52:41.228Z,15.95
2019-02-12T00:55:10.612Z,13.62
2019-02-12T00:57:39.673Z,18.48
2019-02-12T01:00:13.671Z,15.25
2019-02-12T01:02:42.790Z,15.38
2019-02-12T01:05:11.851Z,16.60
2019-02-12T01:07:40.908Z,10.35
2019-02-12T01:10:11.893Z,14.10
2019-02-12T01:12:41.289Z,19.23
2019-02-12T01:15:14.285Z,19.52
2019-02-12T01:17:43.374Z,22.10
2019-02-12T01:20:14.129Z,14.10
2019-02-12T01:22:43.244Z,14.18
2019-02-12T01:25:15.325Z,16.12
2019-02-12T01:27:44.389Z,14.38
2019-02-12T01:30:17.007Z,17.70
2019-02-12T01:32:46.664Z,16.32
2019-02-12T01:35:15.974Z,16.27
2019-02-12T01:37:45.269Z,18.62
2019-02-12T01:40:14.385Z,18.95
2019-02-12T01:42:43.459Z,15.45
2019-02-12T01:45:13.133Z,14.23
2019-02-12T01:47:42.251Z,14.85
2019-02-12T01:50:12.911Z,15.75
2019-02-12T01:52:41.974Z,13.65
2019-02-12T01:55:11.316Z,17.52
2019-02-12T01:57:40.675Z,20.05
2019-02-12T02:00:13.252Z,18.12
2019-02-12T02:02:42.824Z,16.27
2019-02-12T02:05:11.892Z,13.05
2019-02-12T02:07:40.950Z,19.52
2019-02-12T02:10:16.437Z,13.60
2019-02-12T02:12:45.885Z,17.32
2019-02-12T02:15:15.831Z,16.85
2019-02-12T02:17:45.198Z,16.10
2019-02-12T02:20:15.304Z,13.62
2019-02-12T02:22:44.638Z,15.85
2019-02-12T02:25:14.274Z,23.80
2019-02-12T02:27:43.334Z,16.37
2019-02-12T02:30:15.038Z,16.15
2019-02-12T02:32:44.265Z,16.37
2019-02-12T02:35:13.346Z,17.20
2019-02-12T02:37:42.685Z,21.42
2019-02-12T02:40:12.069Z,14.53
2019-02-12T02:42:41.133Z,13.58
2019-02-12T02:45:12.529Z,13.53
2019-02-12T02:47:41.642Z,14.18
2019-02-12T02:50:11.194Z,14.75
2019-02-12T02:52:40.523Z,16.80
2019-02-12T02:55:10.158Z,17.42
2019-02-12T02:57:39.219Z,19.65
2019-02-12T03:00:11.192Z,22.77
2019-02-12T03:02:40.299Z,16.97
2019-02-12T03:05:11.625Z,16.17
2019-02-12T03:07:43.787Z,24.12
2019-02-12T03:10:12.891Z,18.27
2019-02-12T03:12:41.963Z,19.62
2019-02-12T03:15:12.113Z,17.02
2019-02-12T03:17:41.216Z,22.48
2019-02-12T03:20:13.592Z,16.95
2019-02-12T03:22:42.650Z,18.27
2019-02-12T03:25:12.077Z,16.52
2019-02-12T03:27:41.138Z,19.27
2019-02-12T03:30:12.745Z,18.30
2019-02-12T03:32:42.117Z,19.05
2019-02-12T03:35:11.802Z,18.82
2019-02-12T03:37:40.863Z,20.20
2019-02-12T03:40:11.911Z,20.55
2019-02-12T03:42:41.281Z,16.45
2019-02-12T03:45:14.302Z,15.43
2019-02-12T03:47:43.675Z,19.90
2019-02-12T03:50:13.374Z,17.42
2019-02-12T03:52:42.436Z,21.50
2019-02-12T03:55:14.314Z,18.75
2019-02-12T03:57:43.366Z,19.00
2019-02-12T04:00:16.403Z,20.65
2019-02-12T04:03:03.906Z,18.85
2019-02-12T04:05:34.471Z,14.85
2019-02-12T04:08:03.738Z,17.25
2019-02-12T04:10:32.850Z,19.32
2019-02-12T04:13:02.156Z,18.17
2019-02-12T04:15:31.275Z,17.95
2019-02-12T04:18:00.375Z,22.67
2019-02-12T04:20:29.751Z,19.07
2019-02-12T04:22:58.804Z,20.02
2019-02-12T04:25:27.914Z,17.00
2019-02-12T04:27:57.258Z,16.70
2019-02-12T04:30:26.320Z,19.92
2019-02-12T04:32:55.743Z,21.17
2019-02-12T04:35:24.805Z,16.85
2019-02-12T04:37:53.867Z,24.75
2019-02-12T04:40:22.968Z,18.25
2019-02-12T04:42:52.320Z,15.90
2019-02-12T04:45:21.382Z,19.60
2019-02-12T04:47:50.808Z,21.00
2019-02-12T04:50:19.865Z,14.98
2019-02-12T04:52:48.923Z,21.62
2019-02-12T04:55:18.034Z,18.50
2019-02-12T04:57:47.091Z,20.37
2019-02-12T05:00:19.587Z,18.73
2019-02-12T05:02:48.994Z,19.05
2019-02-12T05:05:18.490Z,16.95
2019-02-12T05:07:47.549Z,17.35
2019-02-12T05:10:36.425Z,19.17
2019-02-12T05:13:05.472Z,21.10
2019-02-12T05:15:34.822Z,21.52
2019-02-12T05:18:03.930Z,21.37
2019-02-12T05:20:32.992Z,17.42
2019-02-12T05:23:02.046Z,19.50
2019-02-12T05:25:31.163Z,23.12
2019-02-12T05:28:00.507Z,17.57
2019-02-12T05:30:29.613Z,21.65
2019-02-12T05:32:59.024Z,17.45
2019-02-12T05:35:28.094Z,22.05
2019-02-12T05:37:57.144Z,19.75
2019-02-12T05:40:26.261Z,18.23
2019-02-12T05:42:55.388Z,19.15
2019-02-12T05:45:24.684Z,15.40
2019-02-12T05:47:54.113Z,15.70
2019-02-12T05:50:23.241Z,19.80
2019-02-12T05:52:54.734Z,19.57
2019-02-12T05:55:23.191Z,22.22
2019-02-12T05:57:52.245Z,17.92
2019-02-12T06:00:22.949Z,17.52
2019-02-12T06:02:52.359Z,18.87
2019-02-12T06:05:30.100Z,16.90
2019-02-12T06:07:59.158Z,20.32
2019-02-12T06:10:28.216Z,15.15
2019-02-12T06:12:57.300Z,22.25
2019-02-12T06:15:26.739Z,19.67
2019-02-12T06:17:55.802Z,15.28
2019-02-12T06:20:24.864Z,16.90
2019-02-12T06:23:03.096Z,17.73
2019-02-12T06:25:24.811Z,17.87
2019-02-12T06:27:53.865Z,19.12
2019-02-12T06:30:22.964Z,19.52
2019-02-12T06:32:52.392Z,21.42
2019-02-12T06:35:21.415Z,21.48
2019-02-12T06:37:50.531Z,23.62
2019-02-12T06:40:19.588Z,23.27
2019-02-12T06:42:48.942Z,23.10
2019-02-12T06:45:18.053Z,23.95
2019-02-12T06:47:47.129Z,26.55
2019-02-12T06:50:16.241Z,21.85
2019-02-12T06:52:45.626Z,21.48
2019-02-12T06:55:14.676Z,24.87
2019-02-12T06:57:43.793Z,23.07
2019-02-12T07:00:15.015Z,26.40
2019-02-12T07:03:16.247Z,23.25
2019-02-12T07:05:50.219Z,20.60
2019-02-12T07:08:46.373Z,20.92
2019-02-12T07:11:50.488Z,25.00
2019-02-12T07:14:49.810Z,21.25
2019-02-12T07:17:49.400Z,24.87
2019-02-12T07:20:37.935Z,26.23
2019-02-12T07:23:21.384Z,20.70
2019-02-12T07:25:58.791Z,22.90
2019-02-12T07:28:38.511Z,23.32
2019-02-12T07:31:18.852Z,26.17
2019-02-12T07:34:01.803Z,21.75
2019-02-12T07:37:02.633Z,24.85
2019-02-12T07:39:57.940Z,23.87
2019-02-12T07:42:54.486Z,22.85
2019-02-12T07:45:55.810Z,27.15
2019-02-12T07:48:57.575Z,29.87
2019-02-12T07:51:52.584Z,28.38
2019-02-12T07:54:38.311Z,25.80
2019-02-12T07:57:42.780Z,24.65
2019-02-12T08:00:19.198Z,25.68
2019-02-12T08:03:10.893Z,26.40
2019-02-12T08:05:56.575Z,28.50
2019-02-12T08:08:52.905Z,25.72
2019-02-12T08:11:29.468Z,24.40
2019-02-12T08:14:24.298Z,26.70
2019-02-12T08:17:16.219Z,27.40
2019-02-12T08:20:13.421Z,26.42
2019-02-12T08:23:08.770Z,26.90
2019-02-12T08:25:54.764Z,26.33
2019-02-12T08:29:15.578Z,28.02
2019-02-12T08:33:26.973Z,31.25
2019-02-12T08:36:02.351Z,29.48
2019-02-12T08:38:55.681Z,33.33
2019-02-12T08:41:51.832Z,35.05
2019-02-12T08:44:33.187Z,33.10
2019-02-12T08:47:41.505Z,26.12
2019-02-12T08:50:20.106Z,24.27
2019-02-12T08:52:57.941Z,34.83
2019-02-12T08:55:39.240Z,31.07
2019-02-12T08:58:39.938Z,31.45
2019-02-12T09:01:17.489Z,33.23
2019-02-12T09:04:13.313Z,30.10
2019-02-12T09:06:51.337Z,27.77
2019-02-12T09:09:35.090Z,30.48
2019-02-12T09:12:27.736Z,32.33
2019-02-12T09:15:16.816Z,28.62
2019-02-12T09:18:05.787Z,32.65
2019-02-12T09:21:01.785Z,34.45
2019-02-12T09:24:05.277Z,30.70
2019-02-12T09:27:30.043Z,32.20
2019-02-12T09:30:18.944Z,29.55
2019-02-12T09:33:09.255Z,31.37
2019-02-12T09:36:12.685Z,29.23
2019-02-12T09:38:49.684Z,31.05
2019-02-12T09:41:35.484Z,32.70
2019-02-12T09:44:24.000Z,30.05
2019-02-12T09:47:34.336Z,28.80
2019-02-12T09:50:29.326Z,26.15
2019-02-12T09:53:38.162Z,25.32
2019-02-12T09:56:40.030Z,26.02
2019-02-12T09:59:22.703Z,29.20
2019-02-12T10:02:08.711Z,28.67
2019-02-12T10:04:59.227Z,25.77
2019-02-12T10:08:01.605Z,26.33
2019-02-12T10:10:41.257Z,29.20
2019-02-12T10:13:20.837Z,27.55
2019-02-12T10:16:11.486Z,22.25
2019-02-12T10:19:03.211Z,25.23
2019-02-12T10:21:42.821Z,27.73
2019-02-12T10:24:40.884Z,27.50
2019-02-12T10:27:23.726Z,23.55
2019-02-12T10:30:20.304Z,25.25
2019-02-12T10:32:49.681Z,25.57
2019-02-12T10:35:19.066Z,20.97
2019-02-12T10:37:48.512Z,23.32
2019-02-12T10:40:17.632Z,23.50
2019-02-12T10:42:46.686Z,24.32
2019-02-12T10:45:15.939Z,28.45
2019-02-12T10:47:45.036Z,23.55
2019-02-12T10:50:14.118Z,25.37
2019-02-12T10:52:43.172Z,27.58
2019-02-12T10:55:12.284Z,25.57
2019-02-12T10:57:41.608Z,26.02
2019-02-12T11:00:15.401Z,28.92
2019-02-12T11:02:44.959Z,27.15
2019-02-12T11:05:14.030Z,25.02
2019-02-12T11:07:43.458Z,27.17
2019-02-12T11:10:12.854Z,26.62
2019-02-12T11:12:42.257Z,25.40
2019-02-12T11:15:11.677Z,18.12
2019-02-12T11:17:40.788Z,26.90
2019-02-12T11:20:10.777Z,19.25
2019-02-12T11:22:39.834Z,20.72
2019-02-12T11:25:10.092Z,20.95
2019-02-12T11:27:39.491Z,20.20
2019-02-12T11:30:12.410Z,22.70
2019-02-12T11:32:41.516Z,25.60
2019-02-12T11:35:12.594Z,22.17
2019-02-12T11:37:41.657Z,21.68
2019-02-12T11:40:13.451Z,23.10
2019-02-12T11:42:42.957Z,26.93
2019-02-12T11:45:15.173Z,21.62
2019-02-12T11:47:44.258Z,24.92
2019-02-12T11:50:13.345Z,23.05
2019-02-12T11:52:42.744Z,27.07
2019-02-12T11:55:15.562Z,25.08
2019-02-12T11:57:44.927Z,22.27
2019-02-12T12:00:17.936Z,23.15
2019-02-12T12:02:47.320Z,23.45
2019-02-12T12:05:16.707Z,25.33
2019-02-12T12:07:45.770Z,23.75
2019-02-12T12:10:14.882Z,25.52
2019-02-12T12:12:43.999Z,21.00
2019-02-12T12:15:15.711Z,22.27
2019-02-12T12:17:44.828Z,26.70
2019-02-12T12:20:15.900Z,28.27
2019-02-12T12:22:44.955Z,23.38
2019-02-12T12:25:14.129Z,22.45
2019-02-12T12:27:43.198Z,24.25
2019-02-12T12:30:14.678Z,20.68
2019-02-12T12:32:46.309Z,23.10
2019-02-12T12:35:15.826Z,19.48
2019-02-12T12:37:45.173Z,26.05
2019-02-12T12:40:14.727Z,24.98
2019-02-12T12:42:43.788Z,22.85
2019-02-12T12:45:14.762Z,26.20
2019-02-12T12:47:44.122Z,25.55
2019-02-12T12:50:13.953Z,24.50
2019-02-12T12:52:43.334Z,22.05
2019-02-12T12:55:12.449Z,23.35
2019-02-12T12:57:42.300Z,28.57
2019-02-12T13:00:15.548Z,24.55
2019-02-12T13:02:44.945Z,25.43
2019-02-12T13:05:14.013Z,22.02
2019-02-12T13:07:43.101Z,22.37
2019-02-12T13:10:16.244Z,18.77
2019-02-12T13:12:45.402Z,26.25
2019-02-12T13:15:15.874Z,26.73
2019-02-12T13:17:45.014Z,23.30
2019-02-12T13:20:19.729Z,21.90
2019-02-12T13:22:48.803Z,21.35
2019-02-12T13:25:17.926Z,20.12
2019-02-12T13:27:46.984Z,19.02
2019-02-12T13:30:19.036Z,21.90
2019-02-12T13:32:48.144Z,22.98
2019-02-12T13:35:17.507Z,21.00
2019-02-12T13:37:46.646Z,21.55
2019-02-12T13:40:15.708Z,21.10
2019-02-12T13:42:45.099Z,18.85
2019-02-12T13:45:16.502Z,21.02
2019-02-12T13:47:45.647Z,19.42
2019-02-12T13:50:14.702Z,19.05
2019-02-12T13:52:43.762Z,19.95
2019-02-12T13:55:17.238Z,20.77
2019-02-12T13:57:44.089Z,21.45
2019-02-12T14:00:18.401Z,20.10
2019-02-12T14:02:47.440Z,16.62
2019-02-12T14:05:25.916Z,21.10
2019-02-12T14:07:54.984Z,19.50
2019-02-12T14:10:24.617Z,21.48
2019-02-12T14:12:53.813Z,22.00
2019-02-12T14:15:23.137Z,18.15
2019-02-12T14:17:52.521Z,21.48
2019-02-12T14:20:21.646Z,21.93
2019-02-12T14:22:50.710Z,17.92
2019-02-12T14:25:25.347Z,19.82
2019-02-12T14:27:50.601Z,20.08
2019-02-12T14:30:22.068Z,18.92
2019-02-12T14:32:51.377Z,20.12
2019-02-12T14:35:20.795Z,17.00
2019-02-12T14:37:49.860Z,19.57
2019-02-12T14:40:18.916Z,19.37
2019-02-12T14:42:48.291Z,19.42
2019-02-12T14:45:19.256Z,17.67
2019-02-12T14:47:48.313Z,22.00
2019-02-12T14:50:21.898Z,22.05
2019-02-12T14:52:50.972Z,19.52
2019-02-12T14:55:20.022Z,19.50
2019-02-12T14:57:49.133Z,18.90
2019-02-12T15:00:20.143Z,17.62
2019-02-12T15:02:49.200Z,20.40
2019-02-12T15:05:18.473Z,21.97
2019-02-12T15:07:47.635Z,19.15
2019-02-12T15:10:16.943Z,21.75
2019-02-12T15:12:46.075Z,17.50
2019-02-12T15:15:15.128Z,18.57
2019-02-12T15:17:44.262Z,18.55
2019-02-12T15:20:13.839Z,23.85
2019-02-12T15:22:45.380Z,21.82
2019-02-12T15:25:14.686Z,23.90
2019-02-12T15:27:44.089Z,18.98
2019-02-12T15:30:16.859Z,19.37
2019-02-12T15:32:45.925Z,18.23
2019-02-12T15:35:15.355Z,15.88
2019-02-12T15:37:44.419Z,20.23
2019-02-12T15:40:19.876Z,18.60
2019-02-12T15:42:48.937Z,18.42
2019-02-12T15:45:23.714Z,19.23
2019-02-12T15:47:53.129Z,17.55
2019-02-12T15:50:22.362Z,21.48
2019-02-12T15:52:51.470Z,21.15
2019-02-12T15:55:20.546Z,21.75
2019-02-12T15:57:49.623Z,19.77
2019-02-12T16:00:21.653Z,18.25
2019-02-12T16:02:51.077Z,20.68
2019-02-12T16:05:20.148Z,18.30
2019-02-12T16:07:49.296Z,22.40
2019-02-12T16:10:20.016Z,20.30
2019-02-12T16:12:51.518Z,21.05
2019-02-12T16:15:23.853Z,20.45
2019-02-12T16:17:52.193Z,20.80
2019-02-12T16:20:21.258Z,19.50
2019-02-12T16:22:50.365Z,21.17
2019-02-12T16:25:19.453Z,21.62
2019-02-12T16:27:48.534Z,22.77
2019-02-12T16:30:19.995Z,24.52
2019-02-12T16:32:49.079Z,20.72
2019-02-12T16:35:18.885Z,23.73
2019-02-12T16:37:48.107Z,23.55
2019-02-12T16:40:18.413Z,21.33
2019-02-12T16:42:47.478Z,19.52
2019-02-12T16:45:33.646Z,21.73
2019-02-12T16:48:02.708Z,19.50
2019-02-12T16:50:32.047Z,24.20
2019-02-12T16:53:01.223Z,21.68
2019-02-12T16:55:30.284Z,22.62
2019-02-12T16:57:59.630Z,21.77
2019-02-12T17:00:28.744Z,18.75
2019-02-12T17:02:58.146Z,18.42
2019-02-12T17:05:27.539Z,20.00
2019-02-12T17:07:56.640Z,21.42
2019-02-12T17:10:26.030Z,19.48
2019-02-12T17:12:56.618Z,20.82
2019-02-12T17:15:25.726Z,24.75
2019-02-12T17:17:54.799Z,19.77
2019-02-12T17:20:25.010Z,21.80
2019-02-12T17:22:54.475Z,26.90
2019-02-12T17:25:23.542Z,18.15
2019-02-12T17:27:52.882Z,23.40
2019-02-12T17:30:22.006Z,23.47
2019-02-12T17:32:53.973Z,20.92
2019-02-12T17:35:23.031Z,17.85
2019-02-12T17:37:53.778Z,19.23
2019-02-12T17:40:23.163Z,23.15
2019-02-12T17:42:52.308Z,19.57
2019-02-12T17:45:21.438Z,18.17
2019-02-12T17:47:50.525Z,22.35
2019-02-12T17:50:19.582Z,22.27
2019-02-12T17:52:48.950Z,21.30
2019-02-12T17:55:18.063Z,18.82
2019-02-12T17:57:47.205Z,18.67
2019-02-12T18:00:21.337Z,22.80
2019-02-12T18:02:50.454Z,19.00
2019-02-12T18:05:19.583Z,21.48
2019-02-12T18:07:48.745Z,20.70
2019-02-12T18:10:18.146Z,20.25
2019-02-12T18:12:47.538Z,22.67
2019-02-12T18:15:16.635Z,20.40
2019-02-12T18:17:45.750Z,18.27
2019-02-12T18:20:17.374Z,18.02
2019-02-12T18:22:46.698Z,18.35
2019-02-12T18:25:15.911Z,19.07
2019-02-12T18:27:44.985Z,21.97
2019-02-12T18:30:16.167Z,22.70
2019-02-12T18:32:45.261Z,22.80
2019-02-12T18:35:14.358Z,19.05
2019-02-12T18:37:43.445Z,21.85
2019-02-12T18:40:19.014Z,22.05
2019-02-12T18:42:48.147Z,19.98
2019-02-12T18:45:23.153Z,18.77
2019-02-12T18:47:52.215Z,19.42
2019-02-12T18:50:21.343Z,19.45
2019-02-12T18:52:50.414Z,21.10
2019-02-12T18:55:19.489Z,21.07
2019-02-12T18:57:48.873Z,19.30
2019-02-12T19:00:22.939Z,19.57
2019-02-12T19:02:52.006Z,19.67
2019-02-12T19:05:21.365Z,19.48
2019-02-12T19:07:50.780Z,20.15
2019-02-12T19:10:20.314Z,20.10
2019-02-12T19:12:49.701Z,19.30
2019-02-12T19:15:21.739Z,20.10
2019-02-12T19:18:14.439Z,20.90
2019-02-12T19:20:43.559Z,23.85
2019-02-12T19:23:12.902Z,26.73
2019-02-12T19:25:41.980Z,21.85
2019-02-12T19:28:11.994Z,20.88
2019-02-12T19:30:41.065Z,21.70
2019-02-12T19:33:10.138Z,22.65
2019-02-12T19:35:39.234Z,20.62
2019-02-12T19:38:08.293Z,19.45
2019-02-12T19:40:37.353Z,22.48
2019-02-12T19:43:06.469Z,23.25
2019-02-12T19:45:35.883Z,20.45
2019-02-12T19:48:04.946Z,19.52
2019-02-12T19:50:34.065Z,20.62
2019-02-12T19:53:03.226Z,21.20
2019-02-12T19:55:32.398Z,21.50
2019-02-12T19:58:01.536Z,20.62
2019-02-12T20:00:30.669Z,24.20
2019-02-12T20:02:59.779Z,18.57
2019-02-12T20:05:29.158Z,19.27
2019-02-12T20:07:58.220Z,21.07
2019-02-12T20:10:27.648Z,19.75
2019-02-12T20:12:57.064Z,19.77
2019-02-12T20:15:26.467Z,21.73
2019-02-12T20:17:55.530Z,23.47
2019-02-12T20:20:24.628Z,20.35
2019-02-12T20:22:53.739Z,19.27
2019-02-12T20:25:22.799Z,19.60
2019-02-12T20:27:52.149Z,22.45
2019-02-12T20:30:21.219Z,21.57
2019-02-12T20:32:50.279Z,22.40
2019-02-12T20:35:22.923Z,23.62
2019-02-12T20:37:52.299Z,23.35
2019-02-12T20:40:21.373Z,27.10
2019-02-12T20:42:50.497Z,20.25
2019-02-12T20:45:20.132Z,21.60
2019-02-12T20:47:49.196Z,38.28
2019-02-12T20:50:20.450Z,28.95
2019-02-12T20:52:49.517Z,22.15
2019-02-12T20:55:18.955Z,22.45
2019-02-12T20:57:48.113Z,21.17
2019-02-12T21:00:26.177Z,23.25
2019-02-12T21:02:55.277Z,20.43
2019-02-12T21:05:24.639Z,24.57
2019-02-12T21:07:54.035Z,23.90
2019-02-12T21:10:24.598Z,27.73
2019-02-12T21:12:53.742Z,25.05
2019-02-12T21:15:28.664Z,26.87
2019-02-12T21:17:58.010Z,23.27
2019-02-12T21:20:27.208Z,22.30
2019-02-12T21:22:57.119Z,27.42
2019-02-12T21:25:26.189Z,26.52
2019-02-12T21:27:55.292Z,20.45
2019-02-12T21:30:30.940Z,23.15
2019-02-12T21:33:00.049Z,20.10
2019-02-12T21:35:29.177Z,23.73
2019-02-12T21:37:58.909Z,25.27
2019-02-12T21:40:28.757Z,24.87
2019-02-12T21:42:57.825Z,23.27
2019-02-12T21:45:27.175Z,22.82
2019-02-12T21:47:56.567Z,25.12
2019-02-12T21:50:25.629Z,22.98
2019-02-12T21:52:54.692Z,26.12
2019-02-12T21:55:24.065Z,23.12
2019-02-12T21:57:53.466Z,22.80
2019-02-12T22:00:23.370Z,19.12
2019-02-12T22:02:52.476Z,21.75
2019-02-12T22:05:21.887Z,24.00
2019-02-12T22:07:51.271Z,23.83
2019-02-12T22:10:27.843Z,19.73
2019-02-12T22:12:57.261Z,26.17
2019-02-12T22:15:26.648Z,23.07
2019-02-12T22:17:56.066Z,25.05
2019-02-12T22:20:25.152Z,23.75
2019-02-12T22:22:54.243Z,24.32
2019-02-12T22:25:23.375Z,25.05
2019-02-12T22:27:52.746Z,23.87
2019-02-12T22:30:25.193Z,23.62
2019-02-12T22:32:54.348Z,23.22
2019-02-12T22:35:23.460Z,23.12
2019-02-12T22:37:52.812Z,21.20
2019-02-12T22:40:21.933Z,20.45
2019-02-12T22:42:51.315Z,22.70
2019-02-12T22:45:25.578Z,19.55
2019-02-12T22:47:54.687Z,20.62
2019-02-12T22:50:24.028Z,21.20
2019-02-12T22:52:53.100Z,19.42
2019-02-12T22:55:22.192Z,20.08
2019-02-12T22:57:51.505Z,19.95
2019-02-12T23:00:48.599Z,19.67
2019-02-12T23:03:17.665Z,22.77
2019-02-12T23:05:47.074Z,23.80
2019-02-12T23:08:16.476Z,22.07
2019-02-12T23:10:45.620Z,18.95
2019-02-12T23:13:14.684Z,22.67
2019-02-12T23:15:44.153Z,20.45
2019-02-12T23:18:13.223Z,25.60
2019-02-12T23:20:42.547Z,21.33
2019-02-12T23:23:11.655Z,21.60
2019-02-12T23:25:41.052Z,21.33
2019-02-12T23:28:10.113Z,21.37
2019-02-12T23:30:39.222Z,21.17
2019-02-12T23:33:08.284Z,25.35
2019-02-12T23:35:37.336Z,18.67
2019-02-12T23:38:06.739Z,18.65
2019-02-12T23:40:35.811Z,21.57
2019-02-12T23:43:04.884Z,19.17
2019-02-12T23:45:34.317Z,19.67
2019-02-12T23:48:03.376Z,18.50
2019-02-12T23:50:32.439Z,22.37
2019-02-12T23:53:01.552Z,18.00
2019-02-12T23:55:30.620Z,22.67
2019-02-12T23:58:05.751Z,19.57
